Weather History for Edinburg, TX

Change the Weather History Date:

Sunday, February 10, 2013

  Actual Average (KMFE) Record (KMFE)
Temperature  
Mean Temperature 80 °F 64 °F  
Max Temperature 94 °F 74 °F 96 °F (2013)
Min Temperature 66 °F 53 °F 29 °F (1910)
Degree Days  
Heating Degree Days 0 4  
Month to date heating degree days 49  
Since 1 July heating degree days 476  
Cooling Degree Days 16 3  
Month to date cooling degree days 28  
Year to date cooling degree days 90  
Growing Degree Days 30 (Base 50)    
Moisture  
Dew Point 64 °F    
Average Humidity 61    
Maximum Humidity 84    
Minimum Humidity 25    
Precipitation  
Precipitation 0.00 in 0.03 in 0.98 in (1958)
Month to date precipitation 0.42  
Year to date precipitation 1.47  
Sea Level Pressure  
Sea Level Pressure 29.79 in    
Wind  
Wind Speed 14 mph (SSE)    
Max Wind Speed 21 mph    
Max Gust Speed 29 mph    
Visibility 6 miles    
Events      
T = Trace of Precipitation, MM = Missing Value Source: NWS Daily Summary

Daily Weather History Graph

Daily Weather History Graph

Search for Another Location

Airport:

Trip Planner

Search our weather history database for the weather conditions in past years. The results will help you decide how hot, cold, wet, or windy it might be!

Date:

Astronomy

Feb. 10, 2013 Rise Set
Actual Time 7:11 AM CST 6:22 PM CST
Civil Twilight 6:47 AM CST 6:45 PM CST
Nautical Twilight 6:20 AM CST 7:13 PM CST
Astronomical Twilight 5:53 AM CST 7:40 PM CST
Moon 7:09 AM CST (2/10) 7:04 PM CST (2/10)
Length of Visible Light 11h 57m
Length of Day
11h 10m
New Moon, 0% of the Moon is Illuminated
Feb 10
New Moon
Feb 17
First Quarter
Feb 25
Full
Mar 4
Last Quarter
Mar 11
New

Hourly Weather History & Observations

Time (CST) Temp. Heat Index Dew Point Humidity Pressure Visibility Wind Dir Wind Speed Gust Speed Precip Events Conditions
12:15 AM 76.1 °F - 68.2 °F 76% 29.80 in 7.0 mi South 15.0 mph 26.5 mph N/A   Mostly Cloudy
12:35 AM 75.9 °F - 68.0 °F 76% 29.79 in 7.0 mi South 19.6 mph 26.5 mph N/A   Mostly Cloudy
12:55 AM 76.1 °F - 68.0 °F 76% 29.80 in 5.0 mi South 15.0 mph 23.0 mph N/A   Haze
1:15 AM 76.3 °F - 68.0 °F 75% 29.80 in 5.0 mi South 15.0 mph 25.3 mph N/A   Haze
1:35 AM 76.1 °F - 68.0 °F 76% 29.79 in 7.0 mi South 9.2 mph 18.4 mph N/A   Mostly Cloudy
1:55 AM 76.1 °F - 68.0 °F 76% 29.78 in 5.0 mi South 17.3 mph 21.9 mph N/A   Haze
2:15 AM 75.6 °F - 67.6 °F 76% 29.77 in 5.0 mi SSE 15.0 mph 19.6 mph N/A   Haze
2:35 AM 75.4 °F - 67.3 °F 76% 29.77 in 7.0 mi South 15.0 mph - N/A   Mostly Cloudy
2:55 AM 75.4 °F - 67.3 °F 76% 29.77 in 5.0 mi SSE 15.0 mph 21.9 mph N/A   Haze
3:15 AM 75.4 °F - 67.3 °F 76% 29.77 in 5.0 mi South 15.0 mph 23.0 mph N/A   Haze
3:35 AM 75.2 °F - 67.5 °F 77% 29.76 in 5.0 mi SSE 17.3 mph 23.0 mph N/A   Haze
3:55 AM 75.2 °F - 67.1 °F 76% 29.75 in 5.0 mi South 18.4 mph 25.3 mph N/A   Haze
4:15 AM 75.2 °F - 67.1 °F 76% 29.75 in 7.0 mi South 16.1 mph 23.0 mph N/A   Clear
4:35 AM 75.2 °F - 67.1 °F 76% 29.74 in 5.0 mi South 17.3 mph 26.5 mph N/A   Haze
4:55 AM 75.2 °F - 66.9 °F 75% 29.74 in 5.0 mi South 18.4 mph 28.8 mph N/A   Haze
5:15 AM 75.2 °F - 66.6 °F 74% 29.74 in 5.0 mi South 18.4 mph 26.5 mph N/A   Haze
5:35 AM 74.8 °F - 66.2 °F 74% 29.76 in 5.0 mi South 16.1 mph 25.3 mph N/A   Haze
5:55 AM 74.7 °F - 66.2 °F 75% 29.77 in 5.0 mi South 16.1 mph 21.9 mph N/A   Haze
6:15 AM 74.3 °F - 66.2 °F 76% 29.78 in 5.0 mi South 12.7 mph 18.4 mph N/A   Haze
6:35 AM 74.1 °F - 65.8 °F 75% 29.78 in 5.0 mi South 12.7 mph 19.6 mph N/A   Haze
6:55 AM 73.6 °F - 65.8 °F 77% 29.79 in 5.0 mi South 10.4 mph - N/A   Haze
7:15 AM 73.2 °F - 65.7 °F 77% 29.79 in 5.0 mi South 8.1 mph - N/A   Haze
7:35 AM 72.9 °F - 65.7 °F 78% 29.80 in 4.0 mi South 6.9 mph - N/A   Haze
7:55 AM 73.4 °F - 65.7 °F 77% 29.80 in 4.0 mi South 8.1 mph - N/A   Haze
8:15 AM 74.5 °F - 65.8 °F 74% 29.81 in 4.0 mi South 10.4 mph - N/A   Haze
8:35 AM 75.9 °F - 66.2 °F 72% 29.82 in 4.0 mi SSW 12.7 mph 18.4 mph N/A   Haze
8:55 AM 77.4 °F - 66.4 °F 69% 29.83 in 5.0 mi South 16.1 mph 19.6 mph N/A   Haze
9:15 AM 78.8 °F - 66.4 °F 66% 29.83 in 5.0 mi South 18.4 mph 23.0 mph N/A   Haze
9:35 AM 80.1 °F 82.2 °F 66.4 °F 63% 29.83 in 5.0 mi South 18.4 mph 24.2 mph N/A   Haze
9:55 AM 81.5 °F 83.7 °F 66.2 °F 60% 29.84 in 4.0 mi South 19.6 mph 27.6 mph N/A   Haze
10:15 AM 82.6 °F 84.7 °F 65.8 °F 57% 29.84 in 5.0 mi South 20.7 mph 24.2 mph N/A   Haze
10:35 AM 84.0 °F 86.0 °F 65.5 °F 54% 29.84 in 5.0 mi South 18.4 mph 21.9 mph N/A   Haze
10:55 AM 85.1 °F 86.9 °F 65.1 °F 51% 29.84 in 5.0 mi SSW 19.6 mph - N/A   Haze
11:15 AM 86.2 °F 87.9 °F 64.9 °F 49% 29.83 in 5.0 mi South 17.3 mph 23.0 mph N/A   Haze
11:35 AM 87.3 °F 88.6 °F 64.4 °F 46% 29.82 in 5.0 mi SSW 11.5 mph - N/A   Haze
11:55 AM 88.5 °F 89.8 °F 64.0 °F 44% 29.81 in 5.0 mi South 13.8 mph 17.3 mph N/A   Haze
12:15 PM 89.2 °F 90.6 °F 63.9 °F 43% 29.80 in 5.0 mi South 11.5 mph 17.3 mph N/A   Haze
12:35 PM 90.3 °F 91.5 °F 63.5 °F 41% 29.80 in 5.0 mi South 8.1 mph - N/A   Haze
12:55 PM 91.4 °F 92.1 °F 62.8 °F 38% 29.79 in 5.0 mi South 10.4 mph - N/A   Haze
1:15 PM 91.6 °F 91.6 °F 61.3 °F 36% 29.78 in 7.0 mi WSW 9.2 mph - N/A   Clear
1:35 PM 92.3 °F 92.3 °F 60.8 °F 35% 29.76 in 7.0 mi SSE 3.5 mph - N/A   Clear
1:55 PM 92.8 °F 92.1 °F 59.4 °F 32% 29.76 in 7.0 mi Calm Calm - N/A   Clear
2:15 PM 93.0 °F 92.3 °F 59.2 °F 32% 29.75 in 7.0 mi Calm Calm - N/A   Clear
2:35 PM 93.0 °F 92.0 °F 58.3 °F 31% 29.74 in 7.0 mi Calm Calm - N/A   Clear
2:55 PM 93.4 °F 92.2 °F 57.2 °F 30% 29.72 in 5.0 mi NNE 6.9 mph - N/A   Haze
3:15 PM 93.2 °F 91.3 °F 55.8 °F 28% 29.72 in 7.0 mi Calm Calm - N/A   Clear
3:35 PM 93.0 °F 91.4 °F 56.3 °F 29% 29.72 in 7.0 mi East 3.5 mph - N/A   Clear
3:55 PM 94.3 °F 92.4 °F 55.4 °F 27% 29.71 in 7.0 mi NE 8.1 mph - N/A   Clear
4:15 PM 94.6 °F 92.9 °F 55.4 °F 27% 29.71 in 7.0 mi ESE 9.2 mph - N/A   Clear
4:35 PM 94.3 °F 91.8 °F 53.6 °F 25% 29.71 in 7.0 mi ENE 4.6 mph - N/A   Clear
4:55 PM 91.6 °F 93.9 °F 65.7 °F 42% 29.71 in 5.0 mi SE 15.0 mph - N/A   Haze
5:15 PM 89.8 °F 92.5 °F 66.7 °F 46% 29.72 in 7.0 mi SE 13.8 mph - N/A   Scattered Clouds
5:35 PM 88.0 °F 89.6 °F 64.8 °F 46% 29.74 in 5.0 mi NE 13.8 mph 19.6 mph N/A   Haze
5:55 PM 86.4 °F 87.8 °F 64.8 °F 48% 29.74 in 7.0 mi NE 15.0 mph 18.4 mph N/A   Mostly Cloudy
6:15 PM 85.5 °F 87.4 °F 65.3 °F 51% 29.75 in 7.0 mi NE 13.8 mph 19.6 mph N/A   Mostly Cloudy
6:35 PM 84.2 °F 86.3 °F 65.8 °F 54% 29.75 in 7.0 mi NE 10.4 mph - N/A   Scattered Clouds
6:55 PM 83.3 °F 85.5 °F 66.2 °F 56% 29.77 in 7.0 mi NE 6.9 mph 12.7 mph N/A   Mostly Cloudy
7:15 PM 80.2 °F 82.3 °F 66.2 °F 62% 29.78 in 7.0 mi North 13.8 mph - N/A   Overcast
7:35 PM 76.8 °F - 64.4 °F 65% 29.80 in 7.0 mi North 15.0 mph 19.6 mph N/A   Overcast
7:55 PM 75.4 °F - 63.9 °F 67% 29.81 in 7.0 mi North 9.2 mph - N/A   Overcast
8:15 PM 74.7 °F - 63.5 °F 68% 29.82 in 5.0 mi NNE 15.0 mph - N/A   Haze
8:35 PM 73.4 °F - 63.0 °F 70% 29.83 in 7.0 mi NNE 15.0 mph - N/A   Overcast
8:55 PM 72.7 °F - 63.0 °F 71% 29.84 in 5.0 mi NE 12.7 mph - N/A   Haze
9:15 PM 72.5 °F - 62.8 °F 71% 29.85 in 7.0 mi NE 16.1 mph 19.6 mph N/A   Overcast
9:35 PM 72.0 °F - 63.0 °F 73% 29.86 in 7.0 mi NNE 13.8 mph - N/A   Overcast
9:55 PM 71.6 °F - 63.0 °F 74% 29.87 in 5.0 mi NNE 11.5 mph - N/A   Haze
10:15 PM 70.3 °F - 63.0 °F 77% 29.88 in 5.0 mi North 11.5 mph - N/A   Haze
10:35 PM 69.3 °F - 62.6 °F 79% 29.88 in 5.0 mi NNE 11.5 mph - N/A   Haze
10:55 PM 68.9 °F - 62.2 °F 79% 29.89 in 5.0 mi North 11.5 mph - N/A   Haze
11:15 PM 68.0 °F - 62.1 °F 81% 29.89 in 5.0 mi NNE 11.5 mph - N/A   Haze
11:35 PM 67.8 °F - 61.9 °F 81% 29.90 in 7.0 mi North 12.7 mph - N/A   Overcast
11:55 PM 66.7 °F - 61.7 °F 84% 29.90 in 7.0 mi North 10.4 mph - N/A   Overcast